sensor_id;sensor_type;location;lat;lon;timestamp;pressure;altitude;pressure_sealevel;temperature;humidity
76730;BME280;65653;53.106;18.046;2023-07-16T00:01:01;100258.98;;;23.26;46.83
76730;BME280;65653;53.106;18.046;2023-07-16T00:03:47;100255.02;;;23.22;46.92
76730;BME280;65653;53.106;18.046;2023-07-16T00:06:14;100255.92;;;23.16;47.02
76730;BME280;65653;53.106;18.046;2023-07-16T00:08:41;100260.25;;;23.08;47.35
76730;BME280;65653;53.106;18.046;2023-07-16T00:11:08;100256.20;;;23.01;47.44
76730;BME280;65653;53.106;18.046;2023-07-16T00:13:34;100254.00;;;22.90;47.69
76730;BME280;65653;53.106;18.046;2023-07-16T00:16:01;100251.61;;;22.80;47.93
76730;BME280;65653;53.106;18.046;2023-07-16T00:18:27;100248.20;;;22.69;48.05
76730;BME280;65653;53.106;18.046;2023-07-16T00:20:55;100248.55;;;22.61;48.69
76730;BME280;65653;53.106;18.046;2023-07-16T00:23:22;100244.74;;;22.54;48.90
76730;BME280;65653;53.106;18.046;2023-07-16T00:25:51;100240.75;;;22.46;49.39
76730;BME280;65653;53.106;18.046;2023-07-16T00:28:18;100236.89;;;22.34;49.73
76730;BME280;65653;53.106;18.046;2023-07-16T00:30:44;100231.67;;;22.23;50.05
76730;BME280;65653;53.106;18.046;2023-07-16T00:33:11;100230.75;;;22.18;50.32
76730;BME280;65653;53.106;18.046;2023-07-16T00:35:37;100225.73;;;22.10;50.51
76730;BME280;65653;53.106;18.046;2023-07-16T00:38:04;100225.28;;;22.01;50.87
76730;BME280;65653;53.106;18.046;2023-07-16T00:40:31;100220.54;;;21.97;51.27
76730;BME280;65653;53.106;18.046;2023-07-16T00:42:57;100220.32;;;21.92;51.55
76730;BME280;65653;53.106;18.046;2023-07-16T00:45:24;100221.42;;;21.88;51.80
76730;BME280;65653;53.106;18.046;2023-07-16T00:47:50;100221.14;;;21.87;51.97
76730;BME280;65653;53.106;18.046;2023-07-16T00:50:18;100215.47;;;21.83;52.04
76730;BME280;65653;53.106;18.046;2023-07-16T00:52:45;100212.72;;;21.77;51.95
76730;BME280;65653;53.106;18.046;2023-07-16T00:55:11;100215.98;;;21.67;52.30
76730;BME280;65653;53.106;18.046;2023-07-16T00:57:38;100217.06;;;21.65;52.53
76730;BME280;65653;53.106;18.046;2023-07-16T01:00:07;100217.57;;;21.65;52.71
76730;BME280;65653;53.106;18.046;2023-07-16T01:02:34;100216.95;;;21.66;52.71
76730;BME280;65653;53.106;18.046;2023-07-16T01:05:01;100216.80;;;21.62;53.08
76730;BME280;65653;53.106;18.046;2023-07-16T01:07:29;100215.02;;;21.58;53.10
76730;BME280;65653;53.106;18.046;2023-07-16T01:09:57;100217.73;;;21.54;53.23
76730;BME280;65653;53.106;18.046;2023-07-16T01:12:26;100210.54;;;21.51;53.59
76730;BME280;65653;53.106;18.046;2023-07-16T01:14:54;100201.13;;;21.40;53.65
76730;BME280;65653;53.106;18.046;2023-07-16T01:17:22;100198.29;;;21.31;54.30
76730;BME280;65653;53.106;18.046;2023-07-16T01:19:49;100198.60;;;21.23;54.18
76730;BME280;65653;53.106;18.046;2023-07-16T01:22:36;100212.21;;;21.13;55.04
76730;BME280;65653;53.106;18.046;2023-07-16T01:25:25;100208.02;;;21.17;55.10
76730;BME280;65653;53.106;18.046;2023-07-16T01:30:51;100212.23;;;21.08;55.47
76730;BME280;65653;53.106;18.046;2023-07-16T01:33:20;100214.82;;;21.07;55.72
76730;BME280;65653;53.106;18.046;2023-07-16T01:35:47;100216.10;;;21.15;55.95
76730;BME280;65653;53.106;18.046;2023-07-16T01:38:16;100212.20;;;21.18;55.71
76730;BME280;65653;53.106;18.046;2023-07-16T01:40:45;100214.56;;;21.18;55.73
76730;BME280;65653;53.106;18.046;2023-07-16T01:43:11;100212.98;;;21.21;55.80
76730;BME280;65653;53.106;18.046;2023-07-16T01:45:38;100216.97;;;21.25;55.75
76730;BME280;65653;53.106;18.046;2023-07-16T01:48:28;100213.30;;;21.28;55.79
76730;BME280;65653;53.106;18.046;2023-07-16T01:50:55;100208.48;;;21.33;56.17
76730;BME280;65653;53.106;18.046;2023-07-16T01:53:22;100206.31;;;21.39;56.41
76730;BME280;65653;53.106;18.046;2023-07-16T01:55:48;100195.58;;;21.45;56.16
76730;BME280;65653;53.106;18.046;2023-07-16T01:58:15;100191.16;;;21.50;56.43
76730;BME280;65653;53.106;18.046;2023-07-16T02:00:42;100183.63;;;21.56;56.05
76730;BME280;65653;53.106;18.046;2023-07-16T02:03:08;100181.24;;;21.59;56.24
76730;BME280;65653;53.106;18.046;2023-07-16T02:05:35;100173.10;;;21.65;56.41
76730;BME280;65653;53.106;18.046;2023-07-16T02:08:01;100174.74;;;21.72;56.21
76730;BME280;65653;53.106;18.046;2023-07-16T02:10:28;100181.09;;;21.76;56.37
76730;BME280;65653;53.106;18.046;2023-07-16T02:12:54;100179.36;;;21.84;56.24
76730;BME280;65653;53.106;18.046;2023-07-16T02:15:21;100184.61;;;21.93;56.30
76730;BME280;65653;53.106;18.046;2023-07-16T02:17:48;100184.30;;;21.98;56.08
76730;BME280;65653;53.106;18.046;2023-07-16T02:20:15;100187.69;;;21.98;56.15
76730;BME280;65653;53.106;18.046;2023-07-16T02:22:42;100184.95;;;21.95;56.08
76730;BME280;65653;53.106;18.046;2023-07-16T02:25:09;100178.89;;;21.91;56.46
76730;BME280;65653;53.106;18.046;2023-07-16T02:27:35;100176.42;;;21.87;56.39
76730;BME280;65653;53.106;18.046;2023-07-16T02:30:02;100176.34;;;21.80;56.74
76730;BME280;65653;53.106;18.046;2023-07-16T02:32:28;100172.52;;;21.74;56.89
76730;BME280;65653;53.106;18.046;2023-07-16T02:34:55;100173.77;;;21.73;57.16
76730;BME280;65653;53.106;18.046;2023-07-16T02:37:21;100182.98;;;21.72;57.36
76730;BME280;65653;53.106;18.046;2023-07-16T02:39:49;100183.07;;;21.75;57.14
76730;BME280;65653;53.106;18.046;2023-07-16T02:42:15;100177.48;;;21.75;56.92
76730;BME280;65653;53.106;18.046;2023-07-16T02:44:41;100178.32;;;21.69;56.94
76730;BME280;65653;53.106;18.046;2023-07-16T02:47:11;100184.56;;;21.61;57.18
76730;BME280;65653;53.106;18.046;2023-07-16T02:49:38;100182.71;;;21.57;57.72
76730;BME280;65653;53.106;18.046;2023-07-16T02:52:06;100181.70;;;21.57;57.82
76730;BME280;65653;53.106;18.046;2023-07-16T02:54:33;100179.23;;;21.55;57.78
76730;BME280;65653;53.106;18.046;2023-07-16T02:56:59;100185.29;;;21.52;58.15
76730;BME280;65653;53.106;18.046;2023-07-16T02:59:25;100184.82;;;21.55;58.33
76730;BME280;65653;53.106;18.046;2023-07-16T03:01:52;100187.34;;;21.57;58.15
76730;BME280;65653;53.106;18.046;2023-07-16T03:04:20;100182.59;;;21.61;58.38
76730;BME280;65653;53.106;18.046;2023-07-16T03:06:47;100183.80;;;21.64;58.46
76730;BME280;65653;53.106;18.046;2023-07-16T03:09:13;100181.59;;;21.67;58.37
76730;BME280;65653;53.106;18.046;2023-07-16T03:11:40;100181.98;;;21.68;58.30
76730;BME280;65653;53.106;18.046;2023-07-16T03:14:07;100186.73;;;21.75;58.77
76730;BME280;65653;53.106;18.046;2023-07-16T03:16:33;100185.17;;;21.83;58.34
76730;BME280;65653;53.106;18.046;2023-07-16T03:19:00;100182.08;;;21.85;58.43
76730;BME280;65653;53.106;18.046;2023-07-16T03:21:26;100182.73;;;21.89;58.54
76730;BME280;65653;53.106;18.046;2023-07-16T03:23:53;100182.60;;;21.91;58.43
76730;BME280;65653;53.106;18.046;2023-07-16T03:26:19;100176.84;;;21.94;58.47
76730;BME280;65653;53.106;18.046;2023-07-16T03:28:46;100174.99;;;21.97;58.64
76730;BME280;65653;53.106;18.046;2023-07-16T03:31:13;100179.13;;;22.03;58.60
76730;BME280;65653;53.106;18.046;2023-07-16T03:33:39;100176.66;;;22.09;58.32
76730;BME280;65653;53.106;18.046;2023-07-16T03:36:06;100178.32;;;22.14;58.19
76730;BME280;65653;53.106;18.046;2023-07-16T03:38:33;100174.72;;;22.19;58.10
76730;BME280;65653;53.106;18.046;2023-07-16T03:41:00;100172.37;;;22.24;58.30
76730;BME280;65653;53.106;18.046;2023-07-16T03:43:26;100168.98;;;22.30;58.03
76730;BME280;65653;53.106;18.046;2023-07-16T03:45:53;100165.04;;;22.34;58.05
76730;BME280;65653;53.106;18.046;2023-07-16T03:48:20;100159.98;;;22.39;58.21
76730;BME280;65653;53.106;18.046;2023-07-16T03:50:47;100165.67;;;22.46;57.90
76730;BME280;65653;53.106;18.046;2023-07-16T03:53:14;100168.91;;;22.56;57.74
76730;BME280;65653;53.106;18.046;2023-07-16T03:55:41;100163.61;;;22.65;57.54
76730;BME280;65653;53.106;18.046;2023-07-16T03:58:07;100162.10;;;22.74;57.54
76730;BME280;65653;53.106;18.046;2023-07-16T04:00:34;100159.35;;;22.82;57.30
76730;BME280;65653;53.106;18.046;2023-07-16T04:03:00;100153.41;;;22.89;57.19
76730;BME280;65653;53.106;18.046;2023-07-16T04:05:27;100160.94;;;22.97;57.23
76730;BME280;65653;53.106;18.046;2023-07-16T04:07:53;100164.46;;;23.04;56.86
76730;BME280;65653;53.106;18.046;2023-07-16T04:10:20;100166.23;;;23.08;57.00
76730;BME280;65653;53.106;18.046;2023-07-16T04:12:46;100163.25;;;23.11;57.00
76730;BME280;65653;53.106;18.046;2023-07-16T04:15:13;100156.53;;;23.15;56.86
76730;BME280;65653;53.106;18.046;2023-07-16T04:17:39;100156.52;;;23.17;56.90
76730;BME280;65653;53.106;18.046;2023-07-16T04:20:07;100158.15;;;23.17;57.03
76730;BME280;65653;53.106;18.046;2023-07-16T04:22:34;100151.42;;;23.18;57.00
76730;BME280;65653;53.106;18.046;2023-07-16T04:25:02;100151.81;;;23.17;56.93
76730;BME280;65653;53.106;18.046;2023-07-16T04:27:30;100153.46;;;23.16;57.14
76730;BME280;65653;53.106;18.046;2023-07-16T04:29:56;100170.17;;;23.17;57.04
76730;BME280;65653;53.106;18.046;2023-07-16T04:32:23;100176.39;;;23.23;57.11
76730;BME280;65653;53.106;18.046;2023-07-16T04:34:49;100175.36;;;23.28;57.11
76730;BME280;65653;53.106;18.046;2023-07-16T04:37:16;100181.55;;;23.37;56.76
76730;BME280;65653;53.106;18.046;2023-07-16T04:39:43;100189.43;;;23.44;57.00
76730;BME280;65653;53.106;18.046;2023-07-16T04:42:10;100226.77;;;23.48;56.91
76730;BME280;65653;53.106;18.046;2023-07-16T04:44:36;100253.48;;;23.45;56.98
76730;BME280;65653;53.106;18.046;2023-07-16T04:47:03;100254.80;;;23.38;57.33
76730;BME280;65653;53.106;18.046;2023-07-16T04:49:31;100250.57;;;23.31;57.39
76730;BME280;65653;53.106;18.046;2023-07-16T04:51:58;100255.98;;;23.25;57.92
76730;BME280;65653;53.106;18.046;2023-07-16T04:54:24;100260.52;;;23.25;57.93
76730;BME280;65653;53.106;18.046;2023-07-16T04:56:50;100264.77;;;23.24;57.93
76730;BME280;65653;53.106;18.046;2023-07-16T04:59:17;100258.52;;;23.33;57.84
76730;BME280;65653;53.106;18.046;2023-07-16T05:01:43;100277.90;;;23.41;57.60
76730;BME280;65653;53.106;18.046;2023-07-16T05:04:10;100292.96;;;23.43;57.95
76730;BME280;65653;53.106;18.046;2023-07-16T05:06:36;100292.48;;;23.46;58.03
76730;BME280;65653;53.106;18.046;2023-07-16T05:09:03;100291.27;;;23.43;57.99
76730;BME280;65653;53.106;18.046;2023-07-16T05:11:29;100287.90;;;23.45;57.99
76730;BME280;65653;53.106;18.046;2023-07-16T05:13:56;100279.95;;;23.54;57.96
76730;BME280;65653;53.106;18.046;2023-07-16T05:16:23;100286.23;;;23.67;57.67
76730;BME280;65653;53.106;18.046;2023-07-16T05:18:50;100276.89;;;23.80;57.41
76730;BME280;65653;53.106;18.046;2023-07-16T05:21:16;100279.45;;;23.96;57.05
76730;BME280;65653;53.106;18.046;2023-07-16T05:23:43;100273.05;;;24.10;56.71
76730;BME280;65653;53.106;18.046;2023-07-16T05:26:10;100266.86;;;24.23;56.58
76730;BME280;65653;53.106;18.046;2023-07-16T05:28:37;100273.38;;;24.37;56.15
76730;BME280;65653;53.106;18.046;2023-07-16T05:31:04;100262.67;;;24.48;55.77
76730;BME280;65653;53.106;18.046;2023-07-16T05:33:30;100267.86;;;24.60;55.52
76730;BME280;65653;53.106;18.046;2023-07-16T05:35:57;100273.36;;;24.75;55.06
76730;BME280;65653;53.106;18.046;2023-07-16T05:38:24;100270.44;;;24.87;54.73
76730;BME280;65653;53.106;18.046;2023-07-16T05:40:50;100282.48;;;25.01;54.59
76730;BME280;65653;53.106;18.046;2023-07-16T05:43:17;100283.55;;;25.13;54.06
76730;BME280;65653;53.106;18.046;2023-07-16T05:45:44;100280.79;;;25.25;53.52
76730;BME280;65653;53.106;18.046;2023-07-16T05:48:11;100280.92;;;25.39;53.11
76730;BME280;65653;53.106;18.046;2023-07-16T05:50:38;100285.79;;;25.52;52.19
76730;BME280;65653;53.106;18.046;2023-07-16T05:53:04;100288.58;;;25.65;51.79
76730;BME280;65653;53.106;18.046;2023-07-16T05:55:31;100288.81;;;25.78;51.36
76730;BME280;65653;53.106;18.046;2023-07-16T05:57:57;100286.05;;;25.87;50.12
76730;BME280;65653;53.106;18.046;2023-07-16T06:00:24;100289.18;;;25.90;49.63
76730;BME280;65653;53.106;18.046;2023-07-16T06:02:50;100298.95;;;26.00;49.70
76730;BME280;65653;53.106;18.046;2023-07-16T06:05:17;100294.41;;;26.05;48.80
76730;BME280;65653;53.106;18.046;2023-07-16T06:07:44;100305.94;;;26.09;48.67
76730;BME280;65653;53.106;18.046;2023-07-16T06:10:11;100308.09;;;26.08;48.50
76730;BME280;65653;53.106;18.046;2023-07-16T06:12:37;100310.54;;;26.08;48.34
76730;BME280;65653;53.106;18.046;2023-07-16T06:15:04;100321.09;;;26.15;48.35
76730;BME280;65653;53.106;18.046;2023-07-16T06:17:30;100324.33;;;26.17;48.06
76730;BME280;65653;53.106;18.046;2023-07-16T06:19:57;100331.20;;;26.24;47.72
76730;BME280;65653;53.106;18.046;2023-07-16T06:22:24;100339.05;;;26.34;47.56
76730;BME280;65653;53.106;18.046;2023-07-16T06:24:50;100339.01;;;26.39;47.12
76730;BME280;65653;53.106;18.046;2023-07-16T06:27:17;100340.14;;;26.48;46.86
76730;BME280;65653;53.106;18.046;2023-07-16T06:29:43;100341.36;;;26.57;46.78
76730;BME280;65653;53.106;18.046;2023-07-16T06:32:10;100344.54;;;26.69;46.38
76730;BME280;65653;53.106;18.046;2023-07-16T06:34:37;100350.73;;;26.73;45.55
76730;BME280;65653;53.106;18.046;2023-07-16T06:37:03;100343.66;;;26.81;45.43
76730;BME280;65653;53.106;18.046;2023-07-16T06:39:30;100348.66;;;26.99;45.08
76730;BME280;65653;53.106;18.046;2023-07-16T06:41:57;100353.06;;;27.24;44.86
76730;BME280;65653;53.106;18.046;2023-07-16T06:44:24;100354.91;;;27.46;44.29
76730;BME280;65653;53.106;18.046;2023-07-16T06:46:50;100356.46;;;27.60;43.73
76730;BME280;65653;53.106;18.046;2023-07-16T06:49:17;100353.41;;;27.59;43.36
76730;BME280;65653;53.106;18.046;2023-07-16T06:51:43;100355.31;;;27.64;43.51
76730;BME280;65653;53.106;18.046;2023-07-16T06:54:10;100355.48;;;27.76;43.17
76730;BME280;65653;53.106;18.046;2023-07-16T06:56:36;100354.73;;;27.68;43.31
76730;BME280;65653;53.106;18.046;2023-07-16T06:59:03;100351.94;;;27.71;43.58
76730;BME280;65653;53.106;18.046;2023-07-16T07:01:29;100349.28;;;27.76;43.53
76730;BME280;65653;53.106;18.046;2023-07-16T07:03:56;100352.91;;;27.64;43.86
76730;BME280;65653;53.106;18.046;2023-07-16T07:06:22;100361.05;;;27.66;44.14
76730;BME280;65653;53.106;18.046;2023-07-16T07:08:49;100363.86;;;27.80;44.01
76730;BME280;65653;53.106;18.046;2023-07-16T07:11:15;100373.08;;;27.98;43.69
76730;BME280;65653;53.106;18.046;2023-07-16T07:13:42;100376.34;;;28.16;43.28
76730;BME280;65653;53.106;18.046;2023-07-16T07:16:09;100371.01;;;28.26;42.76
76730;BME280;65653;53.106;18.046;2023-07-16T07:18:36;100358.10;;;28.40;42.50
76730;BME280;65653;53.106;18.046;2023-07-16T07:21:02;100370.92;;;28.57;42.51
76730;BME280;65653;53.106;18.046;2023-07-16T07:23:29;100375.81;;;28.62;42.14
76730;BME280;65653;53.106;18.046;2023-07-16T07:25:56;100374.98;;;28.63;42.19
76730;BME280;65653;53.106;18.046;2023-07-16T07:28:22;100378.10;;;28.68;42.20
76730;BME280;65653;53.106;18.046;2023-07-16T07:30:49;100380.56;;;28.79;42.00
76730;BME280;65653;53.106;18.046;2023-07-16T07:33:16;100382.61;;;28.94;41.59
76730;BME280;65653;53.106;18.046;2023-07-16T07:35:42;100382.28;;;29.06;41.79
76730;BME280;65653;53.106;18.046;2023-07-16T07:38:09;100391.23;;;29.08;41.35
76730;BME280;65653;53.106;18.046;2023-07-16T07:40:35;100391.27;;;29.17;41.43
76730;BME280;65653;53.106;18.046;2023-07-16T07:43:02;100388.52;;;29.39;41.05
76730;BME280;65653;53.106;18.046;2023-07-16T07:45:28;100384.02;;;29.52;40.77
76730;BME280;65653;53.106;18.046;2023-07-16T07:47:55;100389.12;;;29.62;40.65
76730;BME280;65653;53.106;18.046;2023-07-16T07:50:22;100386.52;;;29.77;40.72
76730;BME280;65653;53.106;18.046;2023-07-16T07:52:50;100389.10;;;30.13;39.89
76730;BME280;65653;53.106;18.046;2023-07-16T07:55:17;100391.20;;;30.25;39.31
76730;BME280;65653;53.106;18.046;2023-07-16T07:57:43;100394.27;;;30.32;39.32
76730;BME280;65653;53.106;18.046;2023-07-16T08:00:10;100391.78;;;30.20;39.21
76730;BME280;65653;53.106;18.046;2023-07-16T08:02:38;100403.43;;;30.27;39.43
76730;BME280;65653;53.106;18.046;2023-07-16T08:05:08;100401.94;;;30.51;38.53
76730;BME280;65653;53.106;18.046;2023-07-16T08:07:35;100403.10;;;30.61;38.44
76730;BME280;65653;53.106;18.046;2023-07-16T08:10:02;100409.95;;;30.76;38.34
76730;BME280;65653;53.106;18.046;2023-07-16T08:12:29;100411.63;;;30.89;38.35
76730;BME280;65653;53.106;18.046;2023-07-16T08:14:57;100413.40;;;30.79;38.04
76730;BME280;65653;53.106;18.046;2023-07-16T08:17:24;100413.14;;;30.68;37.88
76730;BME280;65653;53.106;18.046;2023-07-16T08:19:51;100406.98;;;30.46;37.56
76730;BME280;65653;53.106;18.046;2023-07-16T08:22:18;100405.55;;;30.36;37.67
76730;BME280;65653;53.106;18.046;2023-07-16T08:24:45;100383.05;;;30.64;37.18
76730;BME280;65653;53.106;18.046;2023-07-16T08:27:11;100383.48;;;30.79;36.72
76730;BME280;65653;53.106;18.046;2023-07-16T08:29:37;100387.23;;;30.89;36.48
76730;BME280;65653;53.106;18.046;2023-07-16T08:32:04;100385.55;;;30.79;36.21
76730;BME280;65653;53.106;18.046;2023-07-16T08:34:31;100395.27;;;30.61;36.83
76730;BME280;65653;53.106;18.046;2023-07-16T08:36:58;100403.21;;;30.58;37.16
76730;BME280;65653;53.106;18.046;2023-07-16T08:39:24;100417.77;;;30.64;37.24
76730;BME280;65653;53.106;18.046;2023-07-16T08:41:51;100426.75;;;30.71;37.27
76730;BME280;65653;53.106;18.046;2023-07-16T08:44:19;100432.05;;;30.81;36.97
76730;BME280;65653;53.106;18.046;2023-07-16T08:46:46;100441.97;;;30.86;36.59
76730;BME280;65653;53.106;18.046;2023-07-16T08:49:13;100438.73;;;31.05;36.12
76730;BME280;65653;53.106;18.046;2023-07-16T08:51:41;100445.02;;;31.17;36.05
76730;BME280;65653;53.106;18.046;2023-07-16T08:54:08;100446.55;;;31.71;35.50
76730;BME280;65653;53.106;18.046;2023-07-16T08:56:35;100445.58;;;32.31;34.95
76730;BME280;65653;53.106;18.046;2023-07-16T08:59:01;100457.73;;;32.32;34.15
76730;BME280;65653;53.106;18.046;2023-07-16T09:01:28;100467.61;;;31.93;34.91
76730;BME280;65653;53.106;18.046;2023-07-16T09:03:55;100481.52;;;31.56;35.30
76730;BME280;65653;53.106;18.046;2023-07-16T09:06:23;100486.08;;;31.49;35.53
76730;BME280;65653;53.106;18.046;2023-07-16T09:08:49;100491.99;;;31.28;35.09
76730;BME280;65653;53.106;18.046;2023-07-16T09:11:16;100498.41;;;31.08;35.05
76730;BME280;65653;53.106;18.046;2023-07-16T09:13:48;100511.05;;;30.92;35.61
76730;BME280;65653;53.106;18.046;2023-07-16T09:16:15;100515.37;;;30.84;35.79
76730;BME280;65653;53.106;18.046;2023-07-16T09:18:44;100522.85;;;30.59;36.57
76730;BME280;65653;53.106;18.046;2023-07-16T09:21:11;100528.46;;;30.62;36.97
76730;BME280;65653;53.106;18.046;2023-07-16T09:23:38;100529.36;;;30.23;37.01
76730;BME280;65653;53.106;18.046;2023-07-16T09:26:05;100535.85;;;29.69;38.10
76730;BME280;65653;53.106;18.046;2023-07-16T09:28:31;100540.27;;;29.31;39.15
76730;BME280;65653;53.106;18.046;2023-07-16T09:31:03;100548.67;;;29.06;39.87
76730;BME280;65653;53.106;18.046;2023-07-16T09:33:32;100562.88;;;28.82;40.18
76730;BME280;65653;53.106;18.046;2023-07-16T09:36:00;100566.67;;;28.54;40.32
76730;BME280;65653;53.106;18.046;2023-07-16T09:38:27;100570.98;;;28.23;41.09
76730;BME280;65653;53.106;18.046;2023-07-16T09:40:55;100571.20;;;28.00;41.84
76730;BME280;65653;53.106;18.046;2023-07-16T09:43:22;100572.36;;;27.75;42.70
76730;BME280;65653;53.106;18.046;2023-07-16T09:45:49;100582.86;;;27.56;43.31
76730;BME280;65653;53.106;18.046;2023-07-16T09:48:15;100586.89;;;27.38;43.77
76730;BME280;65653;53.106;18.046;2023-07-16T09:50:50;100579.52;;;27.15;44.39
76730;BME280;65653;53.106;18.046;2023-07-16T09:53:19;100581.81;;;26.98;44.98
76730;BME280;65653;53.106;18.046;2023-07-16T09:55:46;100578.40;;;26.87;45.75
76730;BME280;65653;53.106;18.046;2023-07-16T09:58:15;100582.60;;;26.77;46.88
76730;BME280;65653;53.106;18.046;2023-07-16T10:00:46;100586.20;;;26.68;47.73
76730;BME280;65653;53.106;18.046;2023-07-16T10:03:15;100599.71;;;26.43;49.06
76730;BME280;65653;53.106;18.046;2023-07-16T10:05:43;100608.89;;;26.09;50.66
76730;BME280;65653;53.106;18.046;2023-07-16T10:08:19;100609.55;;;25.79;52.43
76730;BME280;65653;53.106;18.046;2023-07-16T10:10:48;100618.67;;;25.58;54.48
76730;BME280;65653;53.106;18.046;2023-07-16T10:13:16;100624.25;;;25.32;55.84
76730;BME280;65653;53.106;18.046;2023-07-16T10:15:58;100635.30;;;25.19;56.04
76730;BME280;65653;53.106;18.046;2023-07-16T10:18:30;100637.32;;;25.17;55.48
76730;BME280;65653;53.106;18.046;2023-07-16T10:21:03;100629.65;;;25.14;55.53
76730;BME280;65653;53.106;18.046;2023-07-16T10:26:09;100619.52;;;24.58;58.04
76730;BME280;65653;53.106;18.046;2023-07-16T10:28:37;100598.30;;;24.26;59.24
76730;BME280;65653;53.106;18.046;2023-07-16T10:31:04;100595.56;;;23.94;60.68
76730;BME280;65653;53.106;18.046;2023-07-16T10:33:34;100591.71;;;23.74;61.40
76730;BME280;65653;53.106;18.046;2023-07-16T10:36:04;100596.05;;;23.53;63.34
76730;BME280;65653;53.106;18.046;2023-07-16T10:38:40;100597.14;;;23.19;65.55
76730;BME280;65653;53.106;18.046;2023-07-16T10:41:08;100596.20;;;22.80;67.73
76730;BME280;65653;53.106;18.046;2023-07-16T10:43:36;100596.73;;;22.49;68.62
76730;BME280;65653;53.106;18.046;2023-07-16T10:46:02;100608.02;;;22.18;70.66
76730;BME280;65653;53.106;18.046;2023-07-16T10:48:29;100621.23;;;21.96;71.76
76730;BME280;65653;53.106;18.046;2023-07-16T10:50:56;100615.59;;;21.83;74.03
76730;BME280;65653;53.106;18.046;2023-07-16T10:53:22;100605.53;;;21.81;73.76
76730;BME280;65653;53.106;18.046;2023-07-16T10:55:49;100610.41;;;22.08;73.63
76730;BME280;65653;53.106;18.046;2023-07-16T10:58:15;100606.55;;;22.55;74.15
76730;BME280;65653;53.106;18.046;2023-07-16T11:00:42;100597.19;;;22.87;74.34
76730;BME280;65653;53.106;18.046;2023-07-16T11:03:15;100615.36;;;23.16;73.82
76730;BME280;65653;53.106;18.046;2023-07-16T11:05:45;100629.77;;;23.85;72.37
76730;BME280;65653;53.106;18.046;2023-07-16T11:08:24;100620.52;;;25.54;67.14
76730;BME280;65653;53.106;18.046;2023-07-16T11:10:55;100602.69;;;26.62;63.07
76730;BME280;65653;53.106;18.046;2023-07-16T11:13:29;100610.50;;;26.19;64.01
76730;BME280;65653;53.106;18.046;2023-07-16T11:15:57;100612.19;;;28.20;59.44
76730;BME280;65653;53.106;18.046;2023-07-16T11:18:24;100602.60;;;30.80;53.08
76730;BME280;65653;53.106;18.046;2023-07-16T11:20:53;100613.55;;;32.50;48.32
76730;BME280;65653;53.106;18.046;2023-07-16T11:23:19;100608.85;;;33.84;44.19
76730;BME280;65653;53.106;18.046;2023-07-16T11:25:47;100600.39;;;34.23;42.14
76730;BME280;65653;53.106;18.046;2023-07-16T11:28:15;100586.52;;;35.00;40.51
76730;BME280;65653;53.106;18.046;2023-07-16T11:30:41;100584.99;;;35.74;38.45
76730;BME280;65653;53.106;18.046;2023-07-16T11:33:12;100577.36;;;36.39;36.43
76730;BME280;65653;53.106;18.046;2023-07-16T11:35:39;100573.17;;;36.85;34.96
76730;BME280;65653;53.106;18.046;2023-07-16T11:38:05;100575.02;;;37.70;33.75
76730;BME280;65653;53.106;18.046;2023-07-16T11:40:34;100580.13;;;38.14;32.26
76730;BME280;65653;53.106;18.046;2023-07-16T11:43:10;100583.22;;;38.57;31.46
76730;BME280;65653;53.106;18.046;2023-07-16T11:45:37;100581.13;;;39.00;29.61
76730;BME280;65653;53.106;18.046;2023-07-16T11:48:04;100586.88;;;39.43;29.19
76730;BME280;65653;53.106;18.046;2023-07-16T11:50:31;100582.90;;;40.17;27.71
76730;BME280;65653;53.106;18.046;2023-07-16T11:53:01;100579.31;;;40.86;26.44
76730;BME280;65653;53.106;18.046;2023-07-16T11:55:28;100576.18;;;40.99;24.86
76730;BME280;65653;53.106;18.046;2023-07-16T11:57:55;100580.42;;;41.06;25.55
76730;BME280;65653;53.106;18.046;2023-07-16T12:00:26;100579.86;;;41.36;24.90
76730;BME280;65653;53.106;18.046;2023-07-16T12:02:52;100580.70;;;40.48;24.98
76730;BME280;65653;53.106;18.046;2023-07-16T12:05:22;100584.99;;;40.09;25.65
76730;BME280;65653;53.106;18.046;2023-07-16T12:07:54;100583.44;;;39.20;26.25
76730;BME280;65653;53.106;18.046;2023-07-16T12:10:21;100582.70;;;39.10;26.51
76730;BME280;65653;53.106;18.046;2023-07-16T12:12:47;100582.53;;;38.06;27.79
76730;BME280;65653;53.106;18.046;2023-07-16T12:15:14;100581.88;;;38.50;27.60
76730;BME280;65653;53.106;18.046;2023-07-16T12:17:40;100580.69;;;38.83;27.25
76730;BME280;65653;53.106;18.046;2023-07-16T12:20:07;100593.41;;;38.14;27.91
76730;BME280;65653;53.106;18.046;2023-07-16T12:22:34;100592.40;;;38.06;28.12
76730;BME280;65653;53.106;18.046;2023-07-16T12:25:03;100587.05;;;36.01;30.89
76730;BME280;65653;53.106;18.046;2023-07-16T12:27:30;100583.80;;;34.84;32.75
76730;BME280;65653;53.106;18.046;2023-07-16T12:29:57;100588.92;;;36.32;31.15
76730;BME280;65653;53.106;18.046;2023-07-16T12:32:24;100586.81;;;36.61;30.67
76730;BME280;65653;53.106;18.046;2023-07-16T12:34:50;100590.17;;;35.47;31.93
76730;BME280;65653;53.106;18.046;2023-07-16T12:37:17;100586.85;;;34.27;33.93
76730;BME280;65653;53.106;18.046;2023-07-16T12:39:44;100589.44;;;33.98;34.45
76730;BME280;65653;53.106;18.046;2023-07-16T12:42:10;100588.34;;;34.03;34.63
76730;BME280;65653;53.106;18.046;2023-07-16T12:44:37;100595.09;;;34.88;33.45
76730;BME280;65653;53.106;18.046;2023-07-16T12:47:04;100589.59;;;36.01;31.73